sensor_id;sensor_type;location;lat;lon;timestamp;P1;durP1;ratioP1;P2;durP2;ratioP2
16426;SDS011;8322;-33.900;151.170;2022-08-23T00:01:50;2.00;;;1.20;;
16426;SDS011;8322;-33.900;151.170;2022-08-23T00:04:21;5.40;;;1.98;;
16426;SDS011;8322;-33.900;151.170;2022-08-23T00:06:51;3.35;;;1.30;;
16426;SDS011;8322;-33.900;151.170;2022-08-23T00:09:22;4.53;;;1.52;;
16426;SDS011;8322;-33.900;151.170;2022-08-23T00:11:53;2.88;;;1.70;;
16426;SDS011;8322;-33.900;151.170;2022-08-23T00:14:26;2.25;;;1.40;;
16426;SDS011;8322;-33.900;151.170;2022-08-23T00:16:56;3.92;;;1.50;;
16426;SDS011;8322;-33.900;151.170;2022-08-23T00:19:26;3.60;;;1.60;;
16426;SDS011;8322;-33.900;151.170;2022-08-23T00:21:56;2.65;;;1.45;;
16426;SDS011;8322;-33.900;151.170;2022-08-23T00:24:26;6.18;;;1.70;;
16426;SDS011;8322;-33.900;151.170;2022-08-23T00:26:58;1.67;;;1.27;;
16426;SDS011;8322;-33.900;151.170;2022-08-23T00:29:33;13.75;;;2.55;;
16426;SDS011;8322;-33.900;151.170;2022-08-23T00:32:04;2.85;;;1.15;;
16426;SDS011;8322;-33.900;151.170;2022-08-23T00:34:35;4.82;;;1.25;;
16426;SDS011;8322;-33.900;151.170;2022-08-23T00:37:05;4.40;;;0.90;;
16426;SDS011;8322;-33.900;151.170;2022-08-23T00:39:35;3.47;;;1.08;;
16426;SDS011;8322;-33.900;151.170;2022-08-23T00:42:05;7.32;;;1.30;;
16426;SDS011;8322;-33.900;151.170;2022-08-23T00:44:58;3.00;;;1.00;;
16426;SDS011;8322;-33.900;151.170;2022-08-23T00:47:44;2.78;;;0.95;;
16426;SDS011;8322;-33.900;151.170;2022-08-23T00:50:18;7.00;;;1.65;;
16426;SDS011;8322;-33.900;151.170;2022-08-23T00:52:51;3.80;;;1.48;;
16426;SDS011;8322;-33.900;151.170;2022-08-23T00:55:21;1.63;;;1.10;;
16426;SDS011;8322;-33.900;151.170;2022-08-23T00:57:51;5.57;;;1.70;;
16426;SDS011;8322;-33.900;151.170;2022-08-23T01:00:23;2.63;;;1.23;;
16426;SDS011;8322;-33.900;151.170;2022-08-23T01:02:53;7.13;;;1.63;;
16426;SDS011;8322;-33.900;151.170;2022-08-23T01:05:23;3.00;;;1.13;;
16426;SDS011;8322;-33.900;151.170;2022-08-23T01:07:55;10.30;;;1.77;;
16426;SDS011;8322;-33.900;151.170;2022-08-23T01:10:26;5.32;;;1.55;;
16426;SDS011;8322;-33.900;151.170;2022-08-23T01:12:58;2.83;;;1.40;;
16426;SDS011;8322;-33.900;151.170;2022-08-23T01:15:31;5.20;;;1.38;;
16426;SDS011;8322;-33.900;151.170;2022-08-23T01:18:03;4.40;;;1.30;;
16426;SDS011;8322;-33.900;151.170;2022-08-23T01:20:41;2.22;;;1.23;;
16426;SDS011;8322;-33.900;151.170;2022-08-23T01:23:25;3.15;;;0.93;;
16426;SDS011;8322;-33.900;151.170;2022-08-23T01:25:56;1.63;;;1.08;;
16426;SDS011;8322;-33.900;151.170;2022-08-23T01:28:26;4.63;;;1.45;;
16426;SDS011;8322;-33.900;151.170;2022-08-23T01:30:57;8.50;;;4.30;;
16426;SDS011;8322;-33.900;151.170;2022-08-23T01:33:27;3.03;;;1.15;;
16426;SDS011;8322;-33.900;151.170;2022-08-23T01:35:56;1.90;;;0.95;;
16426;SDS011;8322;-33.900;151.170;2022-08-23T01:38:28;3.95;;;1.10;;
16426;SDS011;8322;-33.900;151.170;2022-08-23T01:40:58;1.92;;;0.90;;
16426;SDS011;8322;-33.900;151.170;2022-08-23T01:43:28;7.97;;;2.05;;
16426;SDS011;8322;-33.900;151.170;2022-08-23T01:45:58;7.45;;;1.85;;
16426;SDS011;8322;-33.900;151.170;2022-08-23T01:48:34;6.90;;;1.50;;
16426;SDS011;8322;-33.900;151.170;2022-08-23T01:51:04;3.70;;;0.98;;
16426;SDS011;8322;-33.900;151.170;2022-08-23T01:53:36;8.43;;;1.20;;
16426;SDS011;8322;-33.900;151.170;2022-08-23T01:56:06;8.00;;;2.60;;
16426;SDS011;8322;-33.900;151.170;2022-08-23T01:58:36;3.78;;;1.70;;
16426;SDS011;8322;-33.900;151.170;2022-08-23T02:01:06;16.52;;;2.83;;
16426;SDS011;8322;-33.900;151.170;2022-08-23T02:03:35;2.75;;;1.10;;
16426;SDS011;8322;-33.900;151.170;2022-08-23T02:06:05;16.73;;;2.75;;
16426;SDS011;8322;-33.900;151.170;2022-08-23T02:08:37;6.40;;;1.33;;
16426;SDS011;8322;-33.900;151.170;2022-08-23T02:11:23;6.47;;;2.03;;
16426;SDS011;8322;-33.900;151.170;2022-08-23T02:13:55;6.80;;;1.85;;
16426;SDS011;8322;-33.900;151.170;2022-08-23T02:16:26;5.55;;;1.30;;
16426;SDS011;8322;-33.900;151.170;2022-08-23T02:18:56;7.05;;;1.98;;
16426;SDS011;8322;-33.900;151.170;2022-08-23T02:21:26;6.45;;;1.55;;
16426;SDS011;8322;-33.900;151.170;2022-08-23T02:24:01;10.73;;;3.40;;
16426;SDS011;8322;-33.900;151.170;2022-08-23T02:26:32;5.95;;;1.50;;
16426;SDS011;8322;-33.900;151.170;2022-08-23T02:29:03;3.13;;;1.80;;
16426;SDS011;8322;-33.900;151.170;2022-08-23T02:31:33;4.32;;;1.58;;
16426;SDS011;8322;-33.900;151.170;2022-08-23T02:34:03;7.63;;;2.40;;
16426;SDS011;8322;-33.900;151.170;2022-08-23T02:36:33;9.55;;;1.98;;
16426;SDS011;8322;-33.900;151.170;2022-08-23T02:39:04;7.43;;;1.70;;
16426;SDS011;8322;-33.900;151.170;2022-08-23T02:41:35;8.35;;;1.55;;
16426;SDS011;8322;-33.900;151.170;2022-08-23T02:44:05;2.95;;;1.55;;
16426;SDS011;8322;-33.900;151.170;2022-08-23T02:46:35;3.20;;;1.20;;
16426;SDS011;8322;-33.900;151.170;2022-08-23T02:49:05;4.03;;;1.30;;
16426;SDS011;8322;-33.900;151.170;2022-08-23T02:51:35;2.33;;;1.30;;
16426;SDS011;8322;-33.900;151.170;2022-08-23T02:54:07;5.90;;;1.40;;
16426;SDS011;8322;-33.900;151.170;2022-08-23T02:56:37;4.40;;;1.50;;
16426;SDS011;8322;-33.900;151.170;2022-08-23T02:59:06;10.05;;;3.58;;
16426;SDS011;8322;-33.900;151.170;2022-08-23T03:01:37;10.68;;;1.77;;
16426;SDS011;8322;-33.900;151.170;2022-08-23T03:04:09;13.18;;;2.42;;
16426;SDS011;8322;-33.900;151.170;2022-08-23T03:06:39;13.90;;;2.40;;
16426;SDS011;8322;-33.900;151.170;2022-08-23T03:09:11;12.15;;;1.65;;
16426;SDS011;8322;-33.900;151.170;2022-08-23T03:11:42;12.95;;;1.80;;
16426;SDS011;8322;-33.900;151.170;2022-08-23T03:14:12;8.45;;;1.75;;
16426;SDS011;8322;-33.900;151.170;2022-08-23T03:16:42;12.80;;;2.08;;
16426;SDS011;8322;-33.900;151.170;2022-08-23T03:19:11;16.60;;;2.35;;
16426;SDS011;8322;-33.900;151.170;2022-08-23T03:21:41;21.42;;;2.80;;
16426;SDS011;8322;-33.900;151.170;2022-08-23T03:24:13;18.17;;;2.20;;
16426;SDS011;8322;-33.900;151.170;2022-08-23T03:26:43;19.98;;;2.10;;
16426;SDS011;8322;-33.900;151.170;2022-08-23T03:29:13;12.65;;;2.05;;
16426;SDS011;8322;-33.900;151.170;2022-08-23T03:31:43;11.45;;;1.73;;
16426;SDS011;8322;-33.900;151.170;2022-08-23T03:34:12;13.73;;;1.92;;
16426;SDS011;8322;-33.900;151.170;2022-08-23T03:36:42;12.10;;;1.90;;
16426;SDS011;8322;-33.900;151.170;2022-08-23T03:39:14;10.48;;;1.73;;
16426;SDS011;8322;-33.900;151.170;2022-08-23T03:41:43;7.70;;;1.35;;
16426;SDS011;8322;-33.900;151.170;2022-08-23T03:44:13;14.23;;;1.70;;
16426;SDS011;8322;-33.900;151.170;2022-08-23T03:46:43;10.10;;;1.70;;
16426;SDS011;8322;-33.900;151.170;2022-08-23T03:49:13;12.00;;;2.42;;
16426;SDS011;8322;-33.900;151.170;2022-08-23T03:51:42;7.00;;;1.50;;
16426;SDS011;8322;-33.900;151.170;2022-08-23T03:54:14;10.30;;;1.30;;
16426;SDS011;8322;-33.900;151.170;2022-08-23T03:56:49;6.03;;;1.60;;
16426;SDS011;8322;-33.900;151.170;2022-08-23T03:59:19;4.55;;;1.20;;
16426;SDS011;8322;-33.900;151.170;2022-08-23T04:01:49;3.90;;;1.10;;
16426;SDS011;8322;-33.900;151.170;2022-08-23T04:04:19;4.82;;;1.30;;
16426;SDS011;8322;-33.900;151.170;2022-08-23T04:06:48;4.50;;;1.25;;
16426;SDS011;8322;-33.900;151.170;2022-08-23T04:09:20;5.63;;;1.25;;
16426;SDS011;8322;-33.900;151.170;2022-08-23T04:11:50;8.65;;;1.30;;
16426;SDS011;8322;-33.900;151.170;2022-08-23T04:14:20;9.52;;;1.67;;
16426;SDS011;8322;-33.900;151.170;2022-08-23T04:16:49;7.70;;;1.63;;
16426;SDS011;8322;-33.900;151.170;2022-08-23T04:19:19;12.57;;;1.90;;
16426;SDS011;8322;-33.900;151.170;2022-08-23T04:21:49;15.48;;;2.22;;
16426;SDS011;8322;-33.900;151.170;2022-08-23T04:24:21;11.65;;;2.08;;
16426;SDS011;8322;-33.900;151.170;2022-08-23T04:26:50;7.95;;;2.15;;
16426;SDS011;8322;-33.900;151.170;2022-08-23T04:29:20;6.70;;;1.20;;
16426;SDS011;8322;-33.900;151.170;2022-08-23T04:31:50;7.90;;;1.30;;
16426;SDS011;8322;-33.900;151.170;2022-08-23T04:34:20;5.68;;;1.25;;
16426;SDS011;8322;-33.900;151.170;2022-08-23T04:36:49;5.38;;;1.10;;
16426;SDS011;8322;-33.900;151.170;2022-08-23T04:39:21;7.13;;;1.20;;
16426;SDS011;8322;-33.900;151.170;2022-08-23T04:41:51;6.15;;;1.40;;
16426;SDS011;8322;-33.900;151.170;2022-08-23T04:44:36;7.70;;;1.50;;
16426;SDS011;8322;-33.900;151.170;2022-08-23T04:47:06;6.90;;;1.90;;
16426;SDS011;8322;-33.900;151.170;2022-08-23T04:49:36;6.65;;;1.90;;
16426;SDS011;8322;-33.900;151.170;2022-08-23T04:52:05;4.05;;;0.98;;
16426;SDS011;8322;-33.900;151.170;2022-08-23T04:54:37;3.30;;;1.27;;
16426;SDS011;8322;-33.900;151.170;2022-08-23T04:57:07;3.22;;;1.20;;
16426;SDS011;8322;-33.900;151.170;2022-08-23T04:59:36;6.22;;;1.83;;
16426;SDS011;8322;-33.900;151.170;2022-08-23T05:02:06;5.45;;;1.40;;
16426;SDS011;8322;-33.900;151.170;2022-08-23T05:04:36;2.47;;;1.20;;
16426;SDS011;8322;-33.900;151.170;2022-08-23T05:07:06;2.88;;;1.73;;
16426;SDS011;8322;-33.900;151.170;2022-08-23T05:09:38;6.80;;;1.30;;
16426;SDS011;8322;-33.900;151.170;2022-08-23T05:12:08;5.32;;;2.28;;
16426;SDS011;8322;-33.900;151.170;2022-08-23T05:14:38;3.95;;;1.38;;
16426;SDS011;8322;-33.900;151.170;2022-08-23T05:17:08;5.53;;;1.65;;
16426;SDS011;8322;-33.900;151.170;2022-08-23T05:19:38;4.78;;;1.25;;
16426;SDS011;8322;-33.900;151.170;2022-08-23T05:22:08;1.67;;;1.23;;
16426;SDS011;8322;-33.900;151.170;2022-08-23T05:24:39;5.35;;;1.25;;
16426;SDS011;8322;-33.900;151.170;2022-08-23T05:27:09;2.35;;;1.30;;
16426;SDS011;8322;-33.900;151.170;2022-08-23T05:29:39;3.10;;;1.15;;
16426;SDS011;8322;-33.900;151.170;2022-08-23T05:32:08;4.53;;;1.42;;
16426;SDS011;8322;-33.900;151.170;2022-08-23T05:34:38;2.88;;;1.20;;
16426;SDS011;8322;-33.900;151.170;2022-08-23T05:37:08;4.18;;;1.20;;
16426;SDS011;8322;-33.900;151.170;2022-08-23T05:39:40;4.25;;;1.38;;
16426;SDS011;8322;-33.900;151.170;2022-08-23T05:42:10;1.95;;;1.30;;
16426;SDS011;8322;-33.900;151.170;2022-08-23T05:44:40;4.53;;;1.55;;
16426;SDS011;8322;-33.900;151.170;2022-08-23T05:47:10;3.00;;;1.10;;
16426;SDS011;8322;-33.900;151.170;2022-08-23T05:49:40;3.22;;;1.33;;
16426;SDS011;8322;-33.900;151.170;2022-08-23T05:52:11;6.75;;;1.50;;
16426;SDS011;8322;-33.900;151.170;2022-08-23T05:54:42;3.78;;;1.30;;
16426;SDS011;8322;-33.900;151.170;2022-08-23T05:57:12;3.38;;;1.30;;
16426;SDS011;8322;-33.900;151.170;2022-08-23T05:59:42;5.32;;;1.40;;
16426;SDS011;8322;-33.900;151.170;2022-08-23T06:02:12;5.90;;;1.63;;
16426;SDS011;8322;-33.900;151.170;2022-08-23T06:04:42;6.75;;;1.60;;
16426;SDS011;8322;-33.900;151.170;2022-08-23T06:07:11;3.17;;;1.40;;
16426;SDS011;8322;-33.900;151.170;2022-08-23T06:09:43;4.07;;;2.33;;
16426;SDS011;8322;-33.900;151.170;2022-08-23T06:12:13;7.45;;;2.80;;
16426;SDS011;8322;-33.900;151.170;2022-08-23T06:14:43;7.25;;;3.80;;
16426;SDS011;8322;-33.900;151.170;2022-08-23T06:17:13;4.85;;;2.22;;
16426;SDS011;8322;-33.900;151.170;2022-08-23T06:19:43;5.10;;;2.80;;
16426;SDS011;8322;-33.900;151.170;2022-08-23T06:22:12;5.35;;;3.10;;
16426;SDS011;8322;-33.900;151.170;2022-08-23T06:24:44;5.47;;;2.08;;
16426;SDS011;8322;-33.900;151.170;2022-08-23T06:27:14;4.85;;;2.50;;
16426;SDS011;8322;-33.900;151.170;2022-08-23T06:29:43;4.93;;;2.70;;
16426;SDS011;8322;-33.900;151.170;2022-08-23T06:32:13;4.70;;;3.15;;
16426;SDS011;8322;-33.900;151.170;2022-08-23T06:34:43;8.50;;;3.67;;
16426;SDS011;8322;-33.900;151.170;2022-08-23T06:37:13;4.55;;;3.38;;
16426;SDS011;8322;-33.900;151.170;2022-08-23T06:39:44;6.50;;;2.97;;
16426;SDS011;8322;-33.900;151.170;2022-08-23T06:42:14;3.78;;;1.73;;
16426;SDS011;8322;-33.900;151.170;2022-08-23T06:44:45;2.33;;;1.60;;
16426;SDS011;8322;-33.900;151.170;2022-08-23T06:47:15;4.53;;;2.20;;
16426;SDS011;8322;-33.900;151.170;2022-08-23T06:49:45;4.18;;;2.85;;
16426;SDS011;8322;-33.900;151.170;2022-08-23T06:52:15;3.58;;;2.63;;
16426;SDS011;8322;-33.900;151.170;2022-08-23T06:54:46;5.22;;;3.10;;
16426;SDS011;8322;-33.900;151.170;2022-08-23T06:57:17;3.92;;;2.22;;
16426;SDS011;8322;-33.900;151.170;2022-08-23T06:59:47;5.50;;;3.28;;
16426;SDS011;8322;-33.900;151.170;2022-08-23T07:02:17;3.88;;;3.10;;
16426;SDS011;8322;-33.900;151.170;2022-08-23T07:04:47;3.55;;;2.13;;
16426;SDS011;8322;-33.900;151.170;2022-08-23T07:07:18;5.78;;;5.28;;
16426;SDS011;8322;-33.900;151.170;2022-08-23T07:09:50;2.97;;;1.70;;
16426;SDS011;8322;-33.900;151.170;2022-08-23T07:12:20;2.70;;;2.17;;
16426;SDS011;8322;-33.900;151.170;2022-08-23T07:14:49;1.88;;;1.60;;
16426;SDS011;8322;-33.900;151.170;2022-08-23T07:17:20;2.33;;;1.40;;
16426;SDS011;8322;-33.900;151.170;2022-08-23T07:19:50;4.28;;;1.30;;
16426;SDS011;8322;-33.900;151.170;2022-08-23T07:22:20;1.60;;;1.20;;
16426;SDS011;8322;-33.900;151.170;2022-08-23T07:24:51;1.85;;;1.20;;
16426;SDS011;8322;-33.900;151.170;2022-08-23T07:27:21;1.48;;;1.10;;
16426;SDS011;8322;-33.900;151.170;2022-08-23T07:29:51;1.58;;;1.00;;
16426;SDS011;8322;-33.900;151.170;2022-08-23T07:32:21;2.00;;;1.00;;
16426;SDS011;8322;-33.900;151.170;2022-08-23T07:34:50;2.40;;;1.00;;
16426;SDS011;8322;-33.900;151.170;2022-08-23T07:37:20;1.95;;;1.30;;
16426;SDS011;8322;-33.900;151.170;2022-08-23T07:39:52;1.55;;;0.82;;
16426;SDS011;8322;-33.900;151.170;2022-08-23T07:42:22;1.83;;;1.10;;
16426;SDS011;8322;-33.900;151.170;2022-08-23T07:44:51;2.35;;;1.10;;
16426;SDS011;8322;-33.900;151.170;2022-08-23T07:47:21;1.80;;;1.02;;
16426;SDS011;8322;-33.900;151.170;2022-08-23T07:49:53;1.35;;;1.00;;
16426;SDS011;8322;-33.900;151.170;2022-08-23T07:52:22;1.80;;;1.27;;
16426;SDS011;8322;-33.900;151.170;2022-08-23T07:54:54;1.73;;;1.10;;
16426;SDS011;8322;-33.900;151.170;2022-08-23T07:57:24;4.18;;;1.60;;
16426;SDS011;8322;-33.900;151.170;2022-08-23T07:59:55;4.45;;;2.05;;
16426;SDS011;8322;-33.900;151.170;2022-08-23T08:02:25;2.78;;;1.90;;
16426;SDS011;8322;-33.900;151.170;2022-08-23T08:04:54;3.40;;;2.30;;
16426;SDS011;8322;-33.900;151.170;2022-08-23T08:07:24;6.63;;;4.25;;
16426;SDS011;8322;-33.900;151.170;2022-08-23T08:09:56;4.07;;;2.80;;
16426;SDS011;8322;-33.900;151.170;2022-08-23T08:12:27;2.42;;;2.15;;
16426;SDS011;8322;-33.900;151.170;2022-08-23T08:14:58;2.47;;;2.22;;
16426;SDS011;8322;-33.900;151.170;2022-08-23T08:17:27;3.00;;;1.60;;
16426;SDS011;8322;-33.900;151.170;2022-08-23T08:19:57;1.92;;;1.20;;
16426;SDS011;8322;-33.900;151.170;2022-08-23T08:22:27;1.88;;;1.40;;
16426;SDS011;8322;-33.900;151.170;2022-08-23T08:24:58;1.85;;;1.70;;
16426;SDS011;8322;-33.900;151.170;2022-08-23T08:27:31;1.95;;;1.30;;
16426;SDS011;8322;-33.900;151.170;2022-08-23T08:30:01;1.65;;;1.55;;
16426;SDS011;8322;-33.900;151.170;2022-08-23T08:32:30;2.08;;;1.58;;
16426;SDS011;8322;-33.900;151.170;2022-08-23T08:35:01;3.50;;;1.73;;
16426;SDS011;8322;-33.900;151.170;2022-08-23T08:37:30;1.20;;;1.20;;
16426;SDS011;8322;-33.900;151.170;2022-08-23T08:40:03;2.17;;;1.80;;
16426;SDS011;8322;-33.900;151.170;2022-08-23T08:42:46;2.10;;;1.85;;
16426;SDS011;8322;-33.900;151.170;2022-08-23T08:45:20;3.38;;;1.60;;
16426;SDS011;8322;-33.900;151.170;2022-08-23T08:47:52;1.92;;;1.80;;
16426;SDS011;8322;-33.900;151.170;2022-08-23T08:50:25;2.78;;;1.55;;
16426;SDS011;8322;-33.900;151.170;2022-08-23T08:52:59;1.80;;;1.40;;
16426;SDS011;8322;-33.900;151.170;2022-08-23T08:55:31;4.88;;;2.38;;
16426;SDS011;8322;-33.900;151.170;2022-08-23T08:58:03;2.10;;;1.45;;
16426;SDS011;8322;-33.900;151.170;2022-08-23T09:00:36;6.47;;;1.60;;
16426;SDS011;8322;-33.900;151.170;2022-08-23T09:03:08;3.05;;;1.30;;
16426;SDS011;8322;-33.900;151.170;2022-08-23T09:05:40;1.73;;;1.60;;
16426;SDS011;8322;-33.900;151.170;2022-08-23T09:08:14;3.55;;;1.60;;
16426;SDS011;8322;-33.900;151.170;2022-08-23T09:10:55;1.55;;;1.45;;
16426;SDS011;8322;-33.900;151.170;2022-08-23T09:13:34;2.08;;;1.83;;
16426;SDS011;8322;-33.900;151.170;2022-08-23T09:16:10;2.90;;;2.10;;
16426;SDS011;8322;-33.900;151.170;2022-08-23T09:18:43;1.83;;;1.40;;
16426;SDS011;8322;-33.900;151.170;2022-08-23T09:21:14;2.35;;;1.42;;
16426;SDS011;8322;-33.900;151.170;2022-08-23T09:23:44;1.77;;;1.67;;
16426;SDS011;8322;-33.900;151.170;2022-08-23T09:26:20;1.55;;;1.45;;
16426;SDS011;8322;-33.900;151.170;2022-08-23T09:28:51;3.28;;;1.30;;
16426;SDS011;8322;-33.900;151.170;2022-08-23T09:31:37;1.45;;;1.17;;
16426;SDS011;8322;-33.900;151.170;2022-08-23T09:34:07;1.63;;;1.30;;
16426;SDS011;8322;-33.900;151.170;2022-08-23T09:36:38;1.48;;;1.20;;
16426;SDS011;8322;-33.900;151.170;2022-08-23T09:39:08;2.00;;;1.80;;
16426;SDS011;8322;-33.900;151.170;2022-08-23T09:41:53;2.67;;;2.22;;
16426;SDS011;8322;-33.900;151.170;2022-08-23T09:44:31;2.00;;;1.90;;
16426;SDS011;8322;-33.900;151.170;2022-08-23T09:47:04;1.85;;;1.65;;
16426;SDS011;8322;-33.900;151.170;2022-08-23T09:49:34;3.88;;;3.08;;
16426;SDS011;8322;-33.900;151.170;2022-08-23T09:52:10;7.38;;;4.25;;
16426;SDS011;8322;-33.900;151.170;2022-08-23T09:54:40;4.47;;;3.80;;
16426;SDS011;8322;-33.900;151.170;2022-08-23T09:57:13;3.08;;;2.85;;
16426;SDS011;8322;-33.900;151.170;2022-08-23T09:59:51;2.72;;;2.53;;
16426;SDS011;8322;-33.900;151.170;2022-08-23T10:02:24;2.50;;;2.30;;
16426;SDS011;8322;-33.900;151.170;2022-08-23T10:04:56;4.32;;;3.92;;
16426;SDS011;8322;-33.900;151.170;2022-08-23T10:07:27;3.20;;;1.52;;
16426;SDS011;8322;-33.900;151.170;2022-08-23T10:10:12;2.10;;;2.00;;
16426;SDS011;8322;-33.900;151.170;2022-08-23T10:12:44;2.33;;;1.83;;
16426;SDS011;8322;-33.900;151.170;2022-08-23T10:15:13;4.60;;;2.20;;
16426;SDS011;8322;-33.900;151.170;2022-08-23T10:17:46;2.13;;;1.90;;
16426;SDS011;8322;-33.900;151.170;2022-08-23T10:20:23;1.95;;;1.35;;
16426;SDS011;8322;-33.900;151.170;2022-08-23T10:22:57;2.85;;;1.35;;
16426;SDS011;8322;-33.900;151.170;2022-08-23T10:25:31;1.50;;;1.20;;
16426;SDS011;8322;-33.900;151.170;2022-08-23T10:28:09;2.35;;;1.70;;
16426;SDS011;8322;-33.900;151.170;2022-08-23T10:30:57;6.30;;;3.88;;
16426;SDS011;8322;-33.900;151.170;2022-08-23T10:33:30;4.18;;;3.80;;
16426;SDS011;8322;-33.900;151.170;2022-08-23T10:36:08;7.65;;;6.13;;
16426;SDS011;8322;-33.900;151.170;2022-08-23T10:38:43;7.47;;;6.70;;
16426;SDS011;8322;-33.900;151.170;2022-08-23T10:41:19;8.75;;;7.85;;
16426;SDS011;8322;-33.900;151.170;2022-08-23T10:43:58;2.60;;;2.40;;
16426;SDS011;8322;-33.900;151.170;2022-08-23T10:46:29;2.55;;;2.17;;
16426;SDS011;8322;-33.900;151.170;2022-08-23T10:49:02;1.58;;;1.40;;
16426;SDS011;8322;-33.900;151.170;2022-08-23T10:51:35;1.50;;;1.40;;
16426;SDS011;8322;-33.900;151.170;2022-08-23T10:54:07;1.38;;;1.10;;
16426;SDS011;8322;-33.900;151.170;2022-08-23T10:56:37;1.67;;;1.30;;
16426;SDS011;8322;-33.900;151.170;2022-08-23T10:59:09;1.80;;;1.50;;
16426;SDS011;8322;-33.900;151.170;2022-08-23T11:01:44;3.17;;;1.33;;
16426;SDS011;8322;-33.900;151.170;2022-08-23T11:04:16;7.20;;;5.22;;
16426;SDS011;8322;-33.900;151.170;2022-08-23T11:06:49;6.40;;;5.25;;
16426;SDS011;8322;-33.900;151.170;2022-08-23T11:09:30;15.05;;;11.23;;
16426;SDS011;8322;-33.900;151.170;2022-08-23T11:12:09;7.13;;;6.43;;
16426;SDS011;8322;-33.900;151.170;2022-08-23T11:14:42;4.15;;;3.13;;
16426;SDS011;8322;-33.900;151.170;2022-08-23T11:17:23;4.32;;;2.08;;
16426;SDS011;8322;-33.900;151.170;2022-08-23T11:19:55;2.42;;;1.35;;
16426;SDS011;8322;-33.900;151.170;2022-08-23T11:22:25;1.98;;;1.48;;
16426;SDS011;8322;-33.900;151.170;2022-08-23T11:24:57;3.05;;;1.88;;
16426;SDS011;8322;-33.900;151.170;2022-08-23T11:27:28;1.50;;;1.40;;
16426;SDS011;8322;-33.900;151.170;2022-08-23T11:32:44;2.95;;;1.30;;
16426;SDS011;8322;-33.900;151.170;2022-08-23T11:35:29;2.15;;;1.20;;
16426;SDS011;8322;-33.900;151.170;2022-08-23T11:38:02;2.05;;;1.27;;
16426;SDS011;8322;-33.900;151.170;2022-08-23T11:40:37;1.67;;;1.10;;
16426;SDS011;8322;-33.900;151.170;2022-08-23T11:43:08;2.13;;;1.25;;
16426;SDS011;8322;-33.900;151.170;2022-08-23T11:45:41;2.97;;;1.40;;
16426;SDS011;8322;-33.900;151.170;2022-08-23T11:48:18;2.65;;;1.50;;
16426;SDS011;8322;-33.900;151.170;2022-08-23T11:53:40;2.42;;;1.40;;
16426;SDS011;8322;-33.900;151.170;2022-08-23T11:56:26;1.40;;;1.30;;
16426;SDS011;8322;-33.900;151.170;2022-08-23T12:01:48;2.33;;;1.40;;
16426;SDS011;8322;-33.900;151.170;2022-08-23T12:04:30;3.03;;;1.40;;
16426;SDS011;8322;-33.900;151.170;2022-08-23T12:07:00;2.50;;;1.58;;
16426;SDS011;8322;-33.900;151.170;2022-08-23T12:09:51;2.33;;;1.20;;
16426;SDS011;8322;-33.900;151.170;2022-08-23T12:12:25;1.75;;;1.30;;
16426;SDS011;8322;-33.900;151.170;2022-08-23T12:14:56;1.83;;;1.20;;
16426;SDS011;8322;-33.900;151.170;2022-08-23T12:20:13;3.50;;;1.45;;
16426;SDS011;8322;-33.900;151.170;2022-08-23T12:22:55;4.63;;;1.42;;
16426;SDS011;8322;-33.900;151.170;2022-08-23T12:25:25;3.47;;;1.30;;
16426;SDS011;8322;-33.900;151.170;2022-08-23T12:27:58;2.85;;;1.40;;
16426;SDS011;8322;-33.900;151.170;2022-08-23T12:30:31;5.13;;;1.60;;
16426;SDS011;8322;-33.900;151.170;2022-08-23T12:33:03;1.75;;;1.10;;
16426;SDS011;8322;-33.900;151.170;2022-08-23T12:35:38;3.33;;;1.30;;
16426;SDS011;8322;-33.900;151.170;2022-08-23T12:38:11;3.05;;;1.60;;
16426;SDS011;8322;-33.900;151.170;2022-08-23T12:40:45;3.35;;;1.30;;
16426;SDS011;8322;-33.900;151.170;2022-08-23T12:43:16;3.08;;;1.38;;
16426;SDS011;8322;-33.900;151.170;2022-08-23T12:45:48;2.88;;;1.30;;
16426;SDS011;8322;-33.900;151.170;2022-08-23T12:48:19;5.65;;;1.20;;
16426;SDS011;8322;-33.900;151.170;2022-08-23T12:50:53;2.05;;;1.33;;
16426;SDS011;8322;-33.900;151.170;2022-08-23T12:53:28;2.72;;;1.10;;
16426;SDS011;8322;-33.900;151.170;2022-08-23T12:55:59;2.22;;;1.20;;
16426;SDS011;8322;-33.900;151.170;2022-08-23T12:58:30;3.45;;;1.20;;
16426;SDS011;8322;-33.900;151.170;2022-08-23T13:01:00;3.20;;;1.40;;
16426;SDS011;8322;-33.900;151.170;2022-08-23T13:03:31;3.20;;;1.10;;
16426;SDS011;8322;-33.900;151.170;2022-08-23T13:06:04;3.92;;;1.40;;
16426;SDS011;8322;-33.900;151.170;2022-08-23T13:08:37;1.77;;;1.20;;
16426;SDS011;8322;-33.900;151.170;2022-08-23T13:11:08;2.20;;;1.27;;
16426;SDS011;8322;-33.900;151.170;2022-08-23T13:13:39;4.32;;;1.50;;
16426;SDS011;8322;-33.900;151.170;2022-08-23T13:16:22;1.65;;;1.25;;
16426;SDS011;8322;-33.900;151.170;2022-08-23T13:18:52;2.00;;;1.60;;
16426;SDS011;8322;-33.900;151.170;2022-08-23T13:21:28;2.42;;;1.10;;
16426;SDS011;8322;-33.900;151.170;2022-08-23T13:23:58;1.60;;;1.15;;
16426;SDS011;8322;-33.900;151.170;2022-08-23T13:26:34;3.83;;;1.30;;
16426;SDS011;8322;-33.900;151.170;2022-08-23T13:29:09;2.15;;;1.30;;
16426;SDS011;8322;-33.900;151.170;2022-08-23T13:31:52;3.05;;;1.33;;
16426;SDS011;8322;-33.900;151.170;2022-08-23T13:34:35;5.13;;;1.60;;
16426;SDS011;8322;-33.900;151.170;2022-08-23T13:37:13;4.50;;;1.40;;
16426;SDS011;8322;-33.900;151.170;2022-08-23T13:39:44;2.40;;;1.30;;
16426;SDS011;8322;-33.900;151.170;2022-08-23T13:42:15;1.60;;;1.13;;
16426;SDS011;8322;-33.900;151.170;2022-08-23T13:44:53;3.10;;;1.10;;
16426;SDS011;8322;-33.900;151.170;2022-08-23T13:47:23;4.57;;;1.30;;
16426;SDS011;8322;-33.900;151.170;2022-08-23T13:49:54;1.65;;;1.13;;
16426;SDS011;8322;-33.900;151.170;2022-08-23T13:52:26;2.30;;;1.60;;
16426;SDS011;8322;-33.900;151.170;2022-08-23T13:54:56;3.80;;;1.42;;
16426;SDS011;8322;-33.900;151.170;2022-08-23T13:57:26;2.63;;;1.20;;
16426;SDS011;8322;-33.900;151.170;2022-08-23T13:59:57;1.23;;;1.05;;
16426;SDS011;8322;-33.900;151.170;2022-08-23T14:02:27;2.42;;;1.00;;
16426;SDS011;8322;-33.900;151.170;2022-08-23T14:04:56;1.33;;;1.23;;
16426;SDS011;8322;-33.900;151.170;2022-08-23T14:07:28;3.10;;;1.10;;
16426;SDS011;8322;-33.900;151.170;2022-08-23T14:09:58;2.42;;;1.20;;
16426;SDS011;8322;-33.900;151.170;2022-08-23T14:12:29;1.98;;;1.45;;
16426;SDS011;8322;-33.900;151.170;2022-08-23T14:15:00;1.45;;;1.35;;
16426;SDS011;8322;-33.900;151.170;2022-08-23T14:17:30;1.55;;;1.30;;
16426;SDS011;8322;-33.900;151.170;2022-08-23T14:20:02;2.38;;;1.40;;
16426;SDS011;8322;-33.900;151.170;2022-08-23T14:22:35;2.25;;;1.40;;
16426;SDS011;8322;-33.900;151.170;2022-08-23T14:25:05;1.88;;;1.30;;
16426;SDS011;8322;-33.900;151.170;2022-08-23T14:27:36;1.85;;;1.52;;
16426;SDS011;8322;-33.900;151.170;2022-08-23T14:30:07;1.30;;;1.20;;
16426;SDS011;8322;-33.900;151.170;2022-08-23T14:32:37;3.47;;;1.30;;
16426;SDS011;8322;-33.900;151.170;2022-08-23T14:35:07;2.70;;;1.38;;
16426;SDS011;8322;-33.900;151.170;2022-08-23T14:37:39;1.40;;;1.30;;
16426;SDS011;8322;-33.900;151.170;2022-08-23T14:40:09;2.47;;;1.45;;
16426;SDS011;8322;-33.900;151.170;2022-08-23T14:42:38;1.20;;;1.10;;
16426;SDS011;8322;-33.900;151.170;2022-08-23T14:45:08;3.38;;;1.35;;
16426;SDS011;8322;-33.900;151.170;2022-08-23T14:47:38;2.92;;;1.35;;
16426;SDS011;8322;-33.900;151.170;2022-08-23T14:50:08;1.30;;;1.20;;
16426;SDS011;8322;-33.900;151.170;2022-08-23T14:52:41;1.85;;;1.40;;
16426;SDS011;8322;-33.900;151.170;2022-08-23T14:55:11;2.70;;;1.10;;
16426;SDS011;8322;-33.900;151.170;2022-08-23T14:57:41;1.52;;;1.15;;
16426;SDS011;8322;-33.900;151.170;2022-08-23T15:00:11;2.17;;;1.30;;